createdAt,value
2022-10-27T00:00:51.947Z,100.00
2022-10-27T00:03:19.272Z,100.00
2022-10-27T00:05:47.743Z,100.00
2022-10-27T00:08:19.624Z,100.00
2022-10-27T00:10:56.148Z,100.00
2022-10-27T00:13:22.734Z,100.00
2022-10-27T00:16:04.506Z,100.00
2022-10-27T00:18:32.166Z,100.00
2022-10-27T00:21:07.048Z,100.00
2022-10-27T00:23:33.925Z,100.00
2022-10-27T00:26:01.513Z,100.00
2022-10-27T00:28:29.668Z,100.00
2022-10-27T00:31:08.570Z,100.00
2022-10-27T00:33:35.229Z,100.00
2022-10-27T00:36:10.576Z,100.00
2022-10-27T00:38:38.327Z,100.00
2022-10-27T00:41:06.930Z,100.00
2022-10-27T00:43:39.308Z,100.00
2022-10-27T00:46:20.451Z,100.00
2022-10-27T00:48:51.665Z,100.00
2022-10-27T00:51:19.698Z,100.00
2022-10-27T00:53:48.146Z,100.00
2022-10-27T00:56:15.221Z,100.00
2022-10-27T00:58:42.889Z,100.00
2022-10-27T01:01:09.562Z,100.00
2022-10-27T01:03:36.174Z,100.00
2022-10-27T01:06:03.181Z,100.00
2022-10-27T01:08:30.379Z,100.00
2022-10-27T01:10:57.165Z,100.00
2022-10-27T01:13:25.531Z,100.00
2022-10-27T01:16:17.062Z,100.00
2022-10-27T01:19:15.639Z,100.00
2022-10-27T01:22:11.809Z,100.00
2022-10-27T01:24:56.789Z,100.00
2022-10-27T01:28:02.011Z,100.00
2022-10-27T01:30:30.635Z,100.00
2022-10-27T01:33:25.549Z,100.00
2022-10-27T01:36:03.273Z,100.00
2022-10-27T01:38:40.483Z,100.00
2022-10-27T01:41:14.001Z,100.00
2022-10-27T01:43:40.964Z,100.00
2022-10-27T01:46:10.150Z,100.00
2022-10-27T01:48:38.201Z,100.00
2022-10-27T01:51:07.096Z,100.00
2022-10-27T01:53:40.137Z,100.00
2022-10-27T01:56:15.380Z,100.00
2022-10-27T01:58:57.214Z,100.00
2022-10-27T02:01:48.499Z,100.00
2022-10-27T02:04:40.867Z,100.00
2022-10-27T02:07:25.581Z,100.00
2022-10-27T02:10:01.075Z,100.00
2022-10-27T02:12:31.182Z,100.00
2022-10-27T02:15:02.056Z,100.00
2022-10-27T02:17:47.190Z,100.00
2022-10-27T02:20:20.716Z,100.00
2022-10-27T02:22:51.590Z,100.00
2022-10-27T02:25:24.095Z,100.00
2022-10-27T02:27:54.035Z,100.00
2022-10-27T02:30:20.856Z,100.00
2022-10-27T02:32:48.188Z,100.00
2022-10-27T02:35:17.435Z,100.00
2022-10-27T02:37:45.992Z,100.00
2022-10-27T02:40:12.694Z,100.00
2022-10-27T02:42:39.511Z,100.00
2022-10-27T02:45:06.681Z,100.00
2022-10-27T02:47:33.245Z,100.00
2022-10-27T02:49:59.898Z,100.00
2022-10-27T02:52:26.497Z,100.00
2022-10-27T02:54:53.073Z,100.00
2022-10-27T02:57:19.962Z,100.00
2022-10-27T02:59:49.571Z,100.00
2022-10-27T03:02:19.579Z,100.00
2022-10-27T03:04:46.286Z,100.00
2022-10-27T03:07:12.882Z,100.00
2022-10-27T03:09:39.579Z,100.00
2022-10-27T03:12:06.459Z,100.00
2022-10-27T03:14:33.013Z,100.00
2022-10-27T03:16:59.635Z,100.00
2022-10-27T03:19:26.281Z,100.00
2022-10-27T03:21:52.979Z,100.00
2022-10-27T03:24:19.614Z,100.00
2022-10-27T03:26:46.272Z,100.00
2022-10-27T03:29:14.203Z,100.00
2022-10-27T03:31:40.794Z,100.00
2022-10-27T03:34:07.648Z,100.00
2022-10-27T03:36:34.314Z,100.00
2022-10-27T03:39:00.950Z,100.00
2022-10-27T03:41:27.522Z,100.00
2022-10-27T03:43:54.278Z,100.00
2022-10-27T03:46:20.887Z,100.00
2022-10-27T03:48:47.462Z,100.00
2022-10-27T03:51:14.015Z,100.00
2022-10-27T03:53:40.605Z,100.00
2022-10-27T03:56:07.544Z,100.00
2022-10-27T03:58:34.247Z,100.00
2022-10-27T04:01:02.633Z,100.00
2022-10-27T04:03:29.285Z,100.00
2022-10-27T04:05:58.379Z,100.00
2022-10-27T04:08:25.008Z,100.00
2022-10-27T04:10:52.885Z,100.00
2022-10-27T04:13:19.503Z,100.00
2022-10-27T04:15:46.139Z,100.00
2022-10-27T04:18:12.775Z,100.00
2022-10-27T04:20:39.435Z,100.00
2022-10-27T04:23:06.036Z,100.00
2022-10-27T04:25:32.747Z,100.00
2022-10-27T04:28:07.602Z,100.00
2022-10-27T04:30:34.745Z,100.00
2022-10-27T04:33:01.552Z,100.00
2022-10-27T04:35:29.376Z,100.00
2022-10-27T04:37:56.800Z,100.00
2022-10-27T04:40:23.942Z,100.00
2022-10-27T04:42:50.706Z,100.00
2022-10-27T04:45:17.823Z,100.00
2022-10-27T04:47:45.292Z,100.00
2022-10-27T04:50:13.094Z,100.00
2022-10-27T04:52:43.481Z,100.00
2022-10-27T04:55:14.009Z,100.00
2022-10-27T04:57:40.592Z,100.00
2022-10-27T05:00:07.847Z,100.00
2022-10-27T05:02:37.761Z,100.00
2022-10-27T05:05:06.057Z,100.00
2022-10-27T05:07:32.650Z,100.00
2022-10-27T05:09:59.294Z,100.00
2022-10-27T05:12:25.912Z,100.00
2022-10-27T05:14:52.669Z,100.00
2022-10-27T05:17:19.761Z,100.00
2022-10-27T05:19:46.640Z,100.00
2022-10-27T05:22:13.173Z,100.00
2022-10-27T05:24:39.755Z,100.00
2022-10-27T05:27:06.500Z,100.00
2022-10-27T05:29:33.872Z,100.00
2022-10-27T05:32:01.858Z,100.00
2022-10-27T05:34:28.432Z,100.00
2022-10-27T05:36:55.065Z,100.00
2022-10-27T05:39:21.895Z,100.00
2022-10-27T05:41:48.909Z,100.00
2022-10-27T05:44:15.536Z,100.00
2022-10-27T05:46:42.131Z,100.00
2022-10-27T05:49:08.716Z,100.00
2022-10-27T05:51:35.372Z,100.00
2022-10-27T05:54:02.154Z,100.00
2022-10-27T05:56:28.737Z,100.00
2022-10-27T05:58:55.368Z,100.00
2022-10-27T06:01:23.146Z,100.00
2022-10-27T06:03:49.800Z,100.00
2022-10-27T06:06:16.355Z,100.00
2022-10-27T06:08:42.976Z,100.00
2022-10-27T06:11:09.591Z,100.00
2022-10-27T06:13:36.218Z,100.00
2022-10-27T06:16:02.831Z,100.00
2022-10-27T06:18:29.442Z,100.00
2022-10-27T06:20:56.141Z,100.00
2022-10-27T06:23:22.714Z,100.00
2022-10-27T06:25:49.386Z,100.00
2022-10-27T06:28:17.049Z,100.00
2022-10-27T06:30:45.288Z,100.00
2022-10-27T06:33:11.906Z,100.00
2022-10-27T06:35:38.739Z,100.00
2022-10-27T06:38:05.628Z,100.00
2022-10-27T06:40:32.340Z,100.00
2022-10-27T06:43:06.736Z,100.00
2022-10-27T06:45:37.329Z,100.00
2022-10-27T06:48:08.716Z,100.00
2022-10-27T06:50:36.792Z,100.00
2022-10-27T06:53:03.512Z,100.00
2022-10-27T06:55:31.642Z,100.00
2022-10-27T06:57:58.445Z,100.00
2022-10-27T07:00:25.961Z,100.00
2022-10-27T07:02:52.917Z,100.00
2022-10-27T07:05:19.783Z,100.00
2022-10-27T07:07:55.798Z,100.00
2022-10-27T07:10:22.761Z,100.00
2022-10-27T07:12:57.198Z,97.44
2022-10-27T07:15:25.285Z,92.89
2022-10-27T07:18:00.660Z,86.14
2022-10-27T07:20:30.280Z,81.68
2022-10-27T07:22:57.751Z,78.89
2022-10-27T07:25:24.618Z,76.96
2022-10-27T07:27:54.950Z,76.95
2022-10-27T07:30:24.358Z,74.71
2022-10-27T07:32:51.179Z,70.45
2022-10-27T07:35:17.857Z,69.29
2022-10-27T07:37:48.336Z,69.64
2022-10-27T07:40:19.022Z,68.47
2022-10-27T07:42:50.866Z,66.17
2022-10-27T07:45:19.568Z,62.42
2022-10-27T07:47:49.376Z,61.95
2022-10-27T07:50:17.220Z,61.92
2022-10-27T07:52:45.257Z,54.54
2022-10-27T07:55:15.491Z,50.99
2022-10-27T07:57:44.576Z,50.36
2022-10-27T08:00:13.962Z,47.12
2022-10-27T08:02:40.752Z,47.49
2022-10-27T08:05:08.309Z,47.44
2022-10-27T08:07:35.690Z,46.52
2022-10-27T08:10:03.383Z,46.69
2022-10-27T08:12:29.998Z,46.69
2022-10-27T08:14:56.933Z,46.66
2022-10-27T08:17:26.698Z,48.39
2022-10-27T08:19:53.413Z,49.58
2022-10-27T08:22:19.982Z,50.67
2022-10-27T08:24:46.650Z,56.05
2022-10-27T08:27:13.465Z,54.48
2022-10-27T08:29:40.060Z,55.06
2022-10-27T08:32:07.707Z,54.88
2022-10-27T08:34:34.297Z,56.50
2022-10-27T08:37:00.997Z,55.89
2022-10-27T08:39:27.583Z,54.36
2022-10-27T08:42:11.387Z,53.40
2022-10-27T08:45:00.747Z,52.99
2022-10-27T08:47:27.408Z,52.92
2022-10-27T08:50:05.926Z,53.10
2022-10-27T08:52:37.602Z,53.15
2022-10-27T08:55:09.498Z,55.51
2022-10-27T08:57:37.017Z,55.25
2022-10-27T09:00:07.001Z,56.73
2022-10-27T09:03:13.458Z,54.94
2022-10-27T09:06:12.711Z,56.95
2022-10-27T09:09:06.687Z,58.43
2022-10-27T09:11:51.959Z,61.32
2022-10-27T09:14:50.337Z,63.27
2022-10-27T09:17:22.165Z,61.93
2022-10-27T09:19:53.945Z,60.12
2022-10-27T09:22:22.482Z,57.79
2022-10-27T09:25:02.445Z,57.83
2022-10-27T09:27:29.138Z,57.00
2022-10-27T09:30:03.562Z,56.39
2022-10-27T09:32:33.157Z,57.61
2022-10-27T09:35:16.493Z,55.69
2022-10-27T09:37:46.017Z,55.28
2022-10-27T09:40:16.635Z,54.55
2022-10-27T09:42:43.818Z,55.19
2022-10-27T09:45:32.775Z,55.35
2022-10-27T09:48:19.619Z,55.17
2022-10-27T09:50:58.646Z,54.43
2022-10-27T09:54:03.862Z,54.43
2022-10-27T09:56:33.593Z,53.91
2022-10-27T09:59:05.349Z,54.69
2022-10-27T10:01:43.728Z,56.21
2022-10-27T10:04:30.085Z,56.09
2022-10-27T10:07:00.071Z,57.49
2022-10-27T10:09:35.223Z,56.84
2022-10-27T10:12:24.651Z,56.16
2022-10-27T10:15:11.549Z,56.93
2022-10-27T10:17:41.250Z,57.22
2022-10-27T10:20:23.959Z,54.69
2022-10-27T10:22:51.791Z,54.79
2022-10-27T10:25:26.882Z,55.53
2022-10-27T10:27:59.759Z,54.86
2022-10-27T10:30:27.030Z,55.49
2022-10-27T10:32:57.973Z,55.55
2022-10-27T10:35:41.290Z,54.75
2022-10-27T10:38:42.812Z,55.42
2022-10-27T10:41:17.064Z,55.01
2022-10-27T10:43:44.659Z,55.89
2022-10-27T10:46:23.337Z,56.14
2022-10-27T10:48:53.975Z,57.80
2022-10-27T10:51:28.924Z,59.49
2022-10-27T10:54:01.374Z,60.98
2022-10-27T10:56:32.518Z,60.36
2022-10-27T10:59:16.994Z,59.94
2022-10-27T11:01:53.237Z,61.75
2022-10-27T11:04:27.652Z,63.50
2022-10-27T11:07:20.967Z,62.03
2022-10-27T11:10:03.589Z,61.23
2022-10-27T11:12:54.913Z,59.54
2022-10-27T11:15:43.830Z,57.23
2022-10-27T11:18:24.832Z,56.76
2022-10-27T11:20:59.262Z,58.42
2022-10-27T11:23:43.167Z,60.55
2022-10-27T11:26:11.431Z,60.92
2022-10-27T11:28:54.025Z,61.01
2022-10-27T11:31:46.452Z,63.21
2022-10-27T11:34:49.691Z,62.83
2022-10-27T11:37:57.616Z,62.22
2022-10-27T11:40:44.582Z,62.43
2022-10-27T11:43:19.262Z,61.39
2022-10-27T11:45:49.012Z,61.18
2022-10-27T11:48:26.482Z,67.47
2022-10-27T11:51:31.850Z,71.67
2022-10-27T11:53:58.730Z,73.94
2022-10-27T11:56:27.831Z,75.02
2022-10-27T11:59:11.421Z,74.80
2022-10-27T12:02:10.120Z,77.28
2022-10-27T12:04:53.984Z,77.28
2022-10-27T12:07:32.360Z,80.69
2022-10-27T12:10:07.547Z,80.24
2022-10-27T12:12:38.998Z,80.54
2022-10-27T12:15:28.814Z,81.45
2022-10-27T12:18:29.202Z,80.55
2022-10-27T12:21:05.807Z,81.33
2022-10-27T12:23:43.224Z,81.13
2022-10-27T12:26:32.804Z,81.55
2022-10-27T12:29:04.462Z,81.68
2022-10-27T12:31:38.593Z,81.22
2022-10-27T12:34:08.641Z,80.52
2022-10-27T12:36:59.393Z,80.86
2022-10-27T12:39:55.593Z,81.32
2022-10-27T12:42:37.129Z,81.60
2022-10-27T12:45:35.156Z,81.62
2022-10-27T12:48:59.921Z,82.34
2022-10-27T12:51:42.706Z,83.47
2022-10-27T12:54:30.737Z,84.04
2022-10-27T12:57:10.818Z,82.85
2022-10-27T13:00:12.318Z,83.09
2022-10-27T13:02:55.094Z,83.97
2022-10-27T13:05:59.499Z,84.43
2022-10-27T13:09:03.499Z,84.09
2022-10-27T13:11:47.327Z,85.78
2022-10-27T13:14:30.275Z,85.48
2022-10-27T13:17:13.833Z,86.48
2022-10-27T13:19:54.052Z,87.40
2022-10-27T13:22:44.086Z,86.77
2022-10-27T13:25:41.992Z,86.95
2022-10-27T13:28:18.663Z,88.53
2022-10-27T13:30:56.782Z,88.61
2022-10-27T13:33:33.850Z,90.38
2022-10-27T13:36:19.704Z,90.41
2022-10-27T13:38:48.350Z,90.37
2022-10-27T13:41:57.582Z,91.02
2022-10-27T13:44:42.066Z,90.93
2022-10-27T13:47:14.084Z,90.79
2022-10-27T13:49:40.639Z,90.86
2022-10-27T13:52:18.786Z,92.58
2022-10-27T13:55:03.889Z,93.84
2022-10-27T13:57:55.875Z,93.34
2022-10-27T14:00:41.594Z,94.02
2022-10-27T14:03:24.608Z,93.34
2022-10-27T14:05:51.829Z,93.60
2022-10-27T14:08:30.666Z,94.50
2022-10-27T14:11:01.284Z,94.84
2022-10-27T14:13:50.282Z,97.47
2022-10-27T14:16:28.098Z,98.38
2022-10-27T14:19:04.833Z,98.69
2022-10-27T14:21:35.402Z,99.14
2022-10-27T14:24:12.082Z,99.89
2022-10-27T14:26:38.860Z,100.00
2022-10-27T14:29:06.167Z,100.00
2022-10-27T14:31:33.603Z,100.00
2022-10-27T14:34:24.613Z,100.00
2022-10-27T14:36:54.569Z,100.00
2022-10-27T14:39:27.507Z,100.00
2022-10-27T14:41:58.455Z,100.00
2022-10-27T14:44:30.208Z,100.00
2022-10-27T14:47:04.398Z,100.00
2022-10-27T14:49:53.350Z,100.00
2022-10-27T14:52:34.279Z,100.00
2022-10-27T14:55:01.142Z,100.00
2022-10-27T14:57:27.778Z,100.00
2022-10-27T14:59:54.608Z,100.00
2022-10-27T15:02:23.214Z,100.00
2022-10-27T15:04:50.060Z,100.00
2022-10-27T15:07:20.269Z,100.00
2022-10-27T15:09:52.861Z,100.00
2022-10-27T15:12:26.015Z,100.00
2022-10-27T15:14:54.976Z,100.00
2022-10-27T15:17:31.235Z,100.00
2022-10-27T15:20:00.406Z,100.00
2022-10-27T15:22:28.252Z,100.00
2022-10-27T15:24:55.861Z,100.00
2022-10-27T15:27:22.780Z,100.00
2022-10-27T15:29:52.556Z,100.00
2022-10-27T15:32:39.163Z,100.00
2022-10-27T15:35:30.005Z,100.00
2022-10-27T15:37:58.214Z,100.00
2022-10-27T15:40:45.176Z,100.00
2022-10-27T15:43:28.330Z,100.00
2022-10-27T15:46:35.577Z,100.00
2022-10-27T15:49:02.038Z,100.00
2022-10-27T15:51:47.416Z,100.00
2022-10-27T15:54:39.392Z,100.00
2022-10-27T15:57:30.635Z,100.00
2022-10-27T16:00:12.438Z,100.00
2022-10-27T16:02:49.449Z,100.00
2022-10-27T16:05:31.138Z,100.00
2022-10-27T16:08:20.816Z,100.00
2022-10-27T16:10:52.941Z,100.00
2022-10-27T16:13:21.895Z,100.00
2022-10-27T16:15:52.079Z,100.00
2022-10-27T16:18:22.799Z,100.00
2022-10-27T16:20:49.416Z,100.00
2022-10-27T16:23:16.319Z,100.00
2022-10-27T16:25:45.690Z,100.00
2022-10-27T16:28:19.064Z,100.00
2022-10-27T16:30:46.135Z,100.00
2022-10-27T16:33:18.418Z,100.00
2022-10-27T16:35:45.108Z,100.00
2022-10-27T16:38:11.963Z,100.00
2022-10-27T16:40:47.478Z,100.00
2022-10-27T16:43:25.865Z,100.00
2022-10-27T16:45:52.579Z,100.00
2022-10-27T16:48:19.249Z,100.00
2022-10-27T16:50:46.801Z,100.00
2022-10-27T16:53:20.249Z,100.00
2022-10-27T16:55:59.049Z,100.00
2022-10-27T16:58:30.796Z,100.00
2022-10-27T17:01:04.030Z,100.00
2022-10-27T17:03:30.708Z,100.00
2022-10-27T17:05:59.176Z,100.00
2022-10-27T17:08:25.954Z,100.00
2022-10-27T17:10:52.577Z,100.00
2022-10-27T17:13:19.444Z,100.00
2022-10-27T17:15:46.058Z,100.00
2022-10-27T17:18:13.353Z,100.00
2022-10-27T17:20:43.094Z,100.00
2022-10-27T17:23:09.854Z,100.00
2022-10-27T17:25:36.529Z,100.00
2022-10-27T17:28:03.183Z,100.00
2022-10-27T17:30:29.815Z,100.00
2022-10-27T17:32:56.488Z,100.00
2022-10-27T17:35:23.137Z,100.00
2022-10-27T17:37:51.590Z,100.00
2022-10-27T17:40:18.359Z,100.00
2022-10-27T17:42:45.136Z,100.00
2022-10-27T17:45:11.906Z,100.00
2022-10-27T17:47:38.558Z,100.00
2022-10-27T17:50:08.965Z,100.00
2022-10-27T17:52:37.198Z,100.00
2022-10-27T17:55:04.708Z,100.00
2022-10-27T17:57:31.588Z,100.00
2022-10-27T17:59:58.195Z,100.00
2022-10-27T18:02:25.556Z,100.00
2022-10-27T18:04:54.768Z,100.00
2022-10-27T18:07:22.565Z,100.00
2022-10-27T18:09:49.181Z,100.00
2022-10-27T18:12:15.760Z,100.00
2022-10-27T18:14:43.229Z,100.00
2022-10-27T18:17:10.591Z,100.00
2022-10-27T18:19:37.307Z,100.00
2022-10-27T18:22:04.524Z,100.00
2022-10-27T18:24:31.093Z,100.00
2022-10-27T18:26:57.827Z,100.00
2022-10-27T18:29:26.538Z,100.00
2022-10-27T18:31:53.469Z,100.00
2022-10-27T18:34:20.369Z,100.00
2022-10-27T18:36:47.102Z,100.00
2022-10-27T18:39:24.006Z,100.00
2022-10-27T18:41:50.720Z,100.00
2022-10-27T18:44:19.675Z,100.00
2022-10-27T18:46:46.436Z,100.00
2022-10-27T18:49:16.049Z,100.00
2022-10-27T18:51:51.754Z,100.00
2022-10-27T18:54:18.412Z,100.00
2022-10-27T18:56:48.121Z,100.00
2022-10-27T18:59:14.876Z,100.00
2022-10-27T19:01:46.611Z,100.00
2022-10-27T19:04:15.860Z,100.00
2022-10-27T19:06:42.565Z,100.00
2022-10-27T19:09:13.436Z,100.00
2022-10-27T19:11:40.086Z,100.00
2022-10-27T19:14:06.928Z,100.00
2022-10-27T19:16:33.615Z,100.00
2022-10-27T19:19:00.984Z,100.00
2022-10-27T19:21:30.926Z,100.00
2022-10-27T19:24:02.657Z,100.00
2022-10-27T19:26:32.063Z,100.00
2022-10-27T19:28:59.064Z,100.00
2022-10-27T19:31:43.277Z,100.00
2022-10-27T19:34:10.467Z,100.00
2022-10-27T19:36:37.364Z,100.00
2022-10-27T19:39:08.657Z,100.00
2022-10-27T19:41:36.787Z,100.00
2022-10-27T19:44:07.753Z,100.00
2022-10-27T19:46:34.486Z,100.00
2022-10-27T19:49:02.688Z,100.00
2022-10-27T19:51:35.119Z,100.00
2022-10-27T19:54:04.593Z,100.00
2022-10-27T19:56:32.583Z,100.00
2022-10-27T19:59:03.189Z,100.00
2022-10-27T20:01:35.854Z,100.00
2022-10-27T20:04:04.016Z,100.00
2022-10-27T20:06:31.079Z,100.00
2022-10-27T20:08:59.105Z,100.00
2022-10-27T20:11:28.524Z,100.00
2022-10-27T20:14:00.386Z,100.00
2022-10-27T20:16:30.327Z,100.00
2022-10-27T20:19:13.714Z,100.00
2022-10-27T20:21:41.092Z,100.00
2022-10-27T20:24:14.553Z,100.00
2022-10-27T20:26:47.064Z,100.00
2022-10-27T20:29:14.418Z,100.00
2022-10-27T20:31:41.141Z,100.00
2022-10-27T20:34:11.930Z,100.00
2022-10-27T20:36:41.027Z,100.00
2022-10-27T20:39:10.896Z,100.00
2022-10-27T20:41:37.480Z,100.00
2022-10-27T20:44:04.492Z,100.00
2022-10-27T20:46:33.309Z,100.00
2022-10-27T20:49:00.868Z,100.00
2022-10-27T20:51:30.037Z,100.00
2022-10-27T20:53:57.018Z,100.00
2022-10-27T20:56:29.084Z,100.00
2022-10-27T20:58:56.330Z,100.00
2022-10-27T21:01:37.228Z,100.00
2022-10-27T21:04:08.017Z,100.00
2022-10-27T21:06:40.585Z,100.00
2022-10-27T21:09:10.707Z,100.00
2022-10-27T21:11:38.007Z,100.00
2022-10-27T21:14:06.362Z,100.00
2022-10-27T21:16:33.508Z,100.00
2022-10-27T21:19:03.001Z,100.00
2022-10-27T21:21:31.684Z,100.00
2022-10-27T21:24:02.604Z,100.00
2022-10-27T21:26:29.749Z,100.00
2022-10-27T21:28:58.182Z,100.00
2022-10-27T21:31:29.034Z,100.00
2022-10-27T21:33:56.727Z,100.00
2022-10-27T21:36:23.724Z,100.00
2022-10-27T21:38:50.888Z,100.00
2022-10-27T21:41:20.152Z,100.00
2022-10-27T21:43:49.764Z,100.00
2022-10-27T21:46:19.056Z,100.00
2022-10-27T21:48:47.383Z,100.00
2022-10-27T21:51:15.690Z,100.00
2022-10-27T21:53:42.541Z,100.00
2022-10-27T21:56:11.234Z,100.00
2022-10-27T21:58:39.769Z,100.00
2022-10-27T22:01:16.641Z,100.00
2022-10-27T22:03:45.604Z,100.00
2022-10-27T22:06:21.772Z,100.00
2022-10-27T22:08:50.928Z,100.00
2022-10-27T22:11:23.174Z,100.00
2022-10-27T22:13:50.465Z,100.00
2022-10-27T22:16:19.688Z,100.00
2022-10-27T22:18:52.826Z,100.00
2022-10-27T22:21:19.720Z,100.00
2022-10-27T22:23:46.303Z,100.00
2022-10-27T22:26:15.798Z,100.00
2022-10-27T22:28:52.801Z,100.00
2022-10-27T22:31:24.993Z,100.00
2022-10-27T22:33:51.805Z,100.00
2022-10-27T22:36:21.693Z,100.00
2022-10-27T22:38:53.400Z,100.00
2022-10-27T22:41:20.027Z,100.00
2022-10-27T22:43:49.112Z,100.00
2022-10-27T22:46:18.889Z,100.00
2022-10-27T22:48:45.570Z,100.00
2022-10-27T22:51:14.412Z,100.00
2022-10-27T22:53:42.181Z,100.00
2022-10-27T22:56:14.735Z,100.00
2022-10-27T22:58:41.956Z,100.00
2022-10-27T23:01:15.072Z,100.00
2022-10-27T23:03:41.990Z,100.00
2022-10-27T23:06:09.075Z,100.00
2022-10-27T23:08:35.936Z,100.00
2022-10-27T23:11:05.327Z,100.00
2022-10-27T23:13:34.830Z,100.00
2022-10-27T23:16:07.426Z,100.00
2022-10-27T23:18:35.266Z,100.00
2022-10-27T23:21:03.070Z,100.00
2022-10-27T23:23:31.136Z,100.00
2022-10-27T23:25:58.310Z,100.00
2022-10-27T23:28:28.182Z,100.00
2022-10-27T23:30:54.976Z,100.00
2022-10-27T23:33:21.729Z,100.00
2022-10-27T23:35:57.203Z,100.00
2022-10-27T23:41:11.064Z,100.00
2022-10-27T23:43:37.793Z,100.00
2022-10-27T23:46:08.153Z,100.00
2022-10-27T23:48:36.532Z,100.00
2022-10-27T23:51:03.850Z,100.00
2022-10-27T23:53:30.955Z,100.00
2022-10-27T23:56:02.911Z,100.00
2022-10-27T23:58:32.452Z,100.00
